Time;durP1;ratioP1;P1;durP2;ratioP2;P2;SDS_P1;SDS_P2;PMS_P1;PMS_P2;Temp;Humidity;BMP_temperature;BMP_pressure;BME280_temperature;BME280_humidity;BME280_pressure;Samples;Min_cycle;Max_cycle;Signal;HPM_P1;HPM_P2
2023/05/17 00:00:20;;;;;;;4.43;1.30;;;19.80;63.20;;;;;;5071457;28;20091;-66
2023/05/17 00:02:46;;;;;;;4.22;1.20;;;19.80;63.10;;;;;;5072565;28;20051;-65
2023/05/17 00:05:11;;;;;;;3.42;1.15;;;19.80;63.10;;;;;;5070364;28;20043;-65
2023/05/17 00:07:37;;;;;;;3.72;1.20;;;19.80;63.10;;;;;;5073189;28;20047;-65
2023/05/17 00:10:03;;;;;;;4.95;1.45;;;19.80;63.10;;;;;;5072657;28;20098;-66
2023/05/17 00:12:28;;;;;;;5.38;1.33;;;19.80;63.10;;;;;;5071794;28;20535;-66
2023/05/17 00:14:54;;;;;;;4.82;1.55;;;19.80;63.10;;;;;;5071226;28;20074;-65
2023/05/17 00:17:20;;;;;;;3.00;1.20;;;19.80;63.10;;;;;;5072341;28;20123;-65
2023/05/17 00:19:45;;;;;;;4.82;1.73;;;19.80;63.80;;;;;;5071834;28;20032;-65
2023/05/17 00:22:11;;;;;;;3.75;1.13;;;19.80;63.10;;;;;;5071541;28;20083;-65
2023/05/17 00:24:36;;;;;;;4.68;1.60;;;19.70;63.00;;;;;;5071615;28;20051;-65
2023/05/17 00:27:02;;;;;;;4.07;1.20;;;19.70;63.10;;;;;;5071565;28;20413;-66
2023/05/17 00:29:27;;;;;;;4.85;1.60;;;19.70;63.10;;;;;;5071167;28;20197;-66
2023/05/17 00:31:53;;;;;;;5.15;1.35;;;19.70;63.10;;;;;;5070356;28;20052;-65
2023/05/17 00:34:18;;;;;;;3.42;1.00;;;19.70;63.10;;;;;;5070743;28;20043;-66
2023/05/17 00:36:44;;;;;;;4.78;1.50;;;19.70;63.10;;;;;;5072369;28;20543;-66
2023/05/17 00:39:09;;;;;;;4.25;1.25;;;19.70;63.10;;;;;;5060844;28;20162;-66
2023/05/17 00:41:35;;;;;;;4.32;1.42;;;19.70;63.10;;;;;;5069779;28;20044;-66
2023/05/17 00:44:01;;;;;;;3.33;1.40;;;19.70;63.10;;;;;;5070099;28;20127;-65
2023/05/17 00:46:26;;;;;;;5.22;1.45;;;19.70;63.10;;;;;;5071160;28;20488;-66
2023/05/17 00:48:52;;;;;;;3.75;1.40;;;19.70;63.10;;;;;;5072266;28;20029;-65
2023/05/17 00:51:18;;;;;;;4.43;1.55;;;19.70;63.10;;;;;;5069771;28;20086;-66
2023/05/17 00:53:45;;;;;;;4.57;1.42;;;19.70;63.10;;;;;;5070278;28;20484;-66
2023/05/17 00:56:10;;;;;;;3.63;1.45;;;19.70;63.00;;;;;;5082978;28;20048;-66
2023/05/17 00:58:36;;;;;;;3.92;1.30;;;19.70;63.10;;;;;;5092595;28;20046;-66
2023/05/17 01:01:02;;;;;;;3.20;1.40;;;19.70;63.10;;;;;;5043901;28;20127;-66
2023/05/17 01:03:27;;;;;;;3.85;1.20;;;19.70;63.10;;;;;;5054052;28;20075;-66
2023/05/17 01:05:53;;;;;;;5.43;1.50;;;19.70;63.10;;;;;;5072162;28;20082;-65
2023/05/17 01:08:19;;;;;;;4.78;1.20;;;19.60;63.10;;;;;;5052496;28;20083;-65
2023/05/17 01:11:06;;;;;;;3.85;1.40;;;19.70;63.10;;;;;;5070670;28;20395;-66
2023/05/17 01:13:52;;;;;;;5.15;1.45;;;19.60;63.00;;;;;;5072224;28;20111;-66
2023/05/17 01:16:43;;;;;;;4.60;1.52;;;19.60;63.00;;;;;;5071115;28;20037;-66
2023/05/17 01:19:26;;;;;;;3.65;1.27;;;19.60;63.00;;;;;;5070621;28;20040;-65
2023/05/17 01:21:57;;;;;;;6.30;1.40;;;19.60;63.00;;;;;;5050147;28;20094;-65
2023/05/17 01:24:44;;;;;;;3.65;1.38;;;19.60;63.10;;;;;;5069209;28;20496;-66
2023/05/17 01:27:10;;;;;;;4.55;1.70;;;19.60;63.10;;;;;;5071509;28;20404;-66
2023/05/17 01:29:35;;;;;;;4.05;1.48;;;19.60;63.00;;;;;;5040567;28;20047;-65
2023/05/17 01:32:01;;;;;;;4.40;1.42;;;19.60;63.10;;;;;;5053527;28;20507;-65
2023/05/17 01:34:27;;;;;;;4.75;1.27;;;19.60;63.10;;;;;;5036866;28;20052;-66
2023/05/17 01:36:52;;;;;;;4.68;1.60;;;19.60;63.10;;;;;;5069936;28;20052;-66
2023/05/17 01:39:18;;;;;;;5.72;1.10;;;19.60;63.10;;;;;;5071494;28;20052;-66
2023/05/17 01:41:48;;;;;;;6.13;1.55;;;19.60;63.10;;;;;;5071857;28;20044;-66
2023/05/17 01:44:25;;;;;;;3.75;1.30;;;19.60;63.10;;;;;;5068740;28;20493;-66
2023/05/17 01:46:54;;;;;;;4.85;1.27;;;19.50;63.00;;;;;;5053507;28;20071;-66
2023/05/17 01:49:21;;;;;;;4.30;1.45;;;19.50;63.00;;;;;;5069549;28;20048;-66
2023/05/17 01:52:17;;;;;;;5.10;1.48;;;19.50;63.00;;;;;;5071500;28;20135;-65
2023/05/17 01:55:04;;;;;;;3.83;1.38;;;19.60;63.10;;;;;;5070956;28;20514;-65
2023/05/17 01:57:32;;;;;;;3.67;1.27;;;19.50;63.00;;;;;;5040545;28;20041;-66
2023/05/17 01:59:59;;;;;;;5.38;1.35;;;19.50;63.10;;;;;;5041138;28;20048;-65
2023/05/17 02:02:24;;;;;;;4.65;1.50;;;19.50;63.00;;;;;;5056196;28;20037;-65
2023/05/17 02:04:50;;;;;;;4.57;1.50;;;19.50;63.00;;;;;;5036089;28;20056;-66
2023/05/17 02:07:16;;;;;;;4.93;1.40;;;19.50;63.00;;;;;;5072911;28;20089;-66
2023/05/17 02:09:41;;;;;;;4.30;1.40;;;19.50;63.00;;;;;;5092724;28;20040;-66
2023/05/17 02:12:07;;;;;;;4.57;1.27;;;19.50;63.00;;;;;;5076043;28;20446;-66
2023/05/17 02:14:32;;;;;;;4.22;1.35;;;19.50;63.00;;;;;;5075211;28;20045;-66
2023/05/17 02:16:58;;;;;;;3.58;1.40;;;19.50;63.00;;;;;;5075099;28;20136;-66
2023/05/17 02:19:23;;;;;;;3.70;1.33;;;19.50;63.00;;;;;;5074231;28;20032;-66
2023/05/17 02:21:49;;;;;;;3.50;1.25;;;19.50;63.00;;;;;;5074935;28;20123;-66
2023/05/17 02:24:14;;;;;;;3.95;1.30;;;19.50;63.00;;;;;;5073753;28;20047;-66
2023/05/17 02:26:41;;;;;;;4.53;1.50;;;19.40;62.90;;;;;;5074744;28;20056;-66
2023/05/17 02:29:09;;;;;;;3.95;1.30;;;19.50;63.00;;;;;;5074927;28;20044;-66
2023/05/17 02:31:35;;;;;;;3.60;1.33;;;19.50;63.00;;;;;;5074089;28;20055;-66
2023/05/17 02:34:00;;;;;;;4.38;1.42;;;19.40;62.90;;;;;;5073347;28;20037;-66
2023/05/17 02:36:26;;;;;;;3.08;1.30;;;19.40;62.90;;;;;;5074376;28;20124;-66
2023/05/17 02:38:52;;;;;;;4.43;1.33;;;19.40;62.90;;;;;;5074024;28;20036;-66
2023/05/17 02:41:17;;;;;;;3.15;1.10;;;19.40;62.90;;;;;;5074544;28;20046;-66
2023/05/17 02:43:43;;;;;;;4.20;1.10;;;19.40;62.80;;;;;;5073331;28;20147;-66
2023/05/17 02:46:08;;;;;;;4.55;1.33;;;19.40;62.80;;;;;;5073617;28;20041;-66
2023/05/17 02:48:34;;;;;;;4.82;1.30;;;19.40;62.70;;;;;;5073214;28;20127;-66
2023/05/17 02:51:00;;;;;;;3.20;1.25;;;19.40;62.70;;;;;;5073317;28;20141;-67
2023/05/17 02:53:25;;;;;;;6.35;1.60;;;19.40;62.70;;;;;;5083945;28;20093;-66
2023/05/17 02:55:51;;;;;;;3.83;1.40;;;19.40;62.70;;;;;;5089258;28;20051;-66
2023/05/17 02:58:17;;;;;;;4.05;1.50;;;19.40;62.70;;;;;;5073085;28;20047;-66
2023/05/17 03:00:45;;;;;;;5.80;1.52;;;19.40;62.70;;;;;;5090125;28;20049;-65
2023/05/17 03:03:11;;;;;;;5.18;1.35;;;19.40;62.70;;;;;;5074173;28;20107;-66
2023/05/17 03:05:36;;;;;;;4.55;1.40;;;19.40;62.80;;;;;;5073531;28;20484;-68
2023/05/17 03:08:02;;;;;;;4.25;1.10;;;19.50;62.80;;;;;;5056629;28;20127;-66
2023/05/17 03:10:27;;;;;;;4.40;1.25;;;19.40;62.80;;;;;;5073749;28;20553;-66
2023/05/17 03:12:53;;;;;;;5.10;1.23;;;19.40;62.80;;;;;;5071731;28;20496;-66
2023/05/17 03:15:19;;;;;;;3.60;1.10;;;19.40;62.80;;;;;;5072840;28;20048;-66
2023/05/17 03:17:44;;;;;;;3.47;1.20;;;19.40;62.80;;;;;;5072192;28;20036;-66
2023/05/17 03:20:10;;;;;;;3.78;1.30;;;19.50;62.80;;;;;;5073805;28;20530;-66
2023/05/17 03:22:36;;;;;;;5.72;1.30;;;19.50;62.80;;;;;;5073115;28;20498;-66
2023/05/17 03:25:02;;;;;;;4.78;1.60;;;19.50;62.80;;;;;;5089046;28;20040;-66
2023/05/17 03:27:29;;;;;;;4.32;1.52;;;19.50;62.80;;;;;;5075030;28;20408;-66
2023/05/17 03:29:55;;;;;;;5.22;1.33;;;19.50;62.80;;;;;;5073015;28;20048;-66
2023/05/17 03:32:21;;;;;;;4.80;1.30;;;19.50;62.80;;;;;;5073306;28;20040;-66
2023/05/17 03:34:47;;;;;;;4.75;1.02;;;19.50;62.80;;;;;;5073025;28;20047;-66
2023/05/17 03:37:12;;;;;;;5.05;1.83;;;19.50;62.80;;;;;;5071880;28;20037;-66
2023/05/17 03:39:38;;;;;;;3.75;1.15;;;19.50;62.80;;;;;;5073934;28;20135;-66
2023/05/17 03:42:04;;;;;;;3.55;1.10;;;19.60;62.80;;;;;;5072956;28;20113;-66
2023/05/17 03:44:30;;;;;;;3.45;1.13;;;19.60;62.80;;;;;;5071979;28;20059;-66
2023/05/17 03:46:55;;;;;;;3.78;1.00;;;19.60;62.80;;;;;;5073392;28;20041;-66
2023/05/17 03:49:21;;;;;;;4.70;1.25;;;19.60;62.80;;;;;;5072544;28;20056;-66
2023/05/17 03:51:46;;;;;;;3.67;1.05;;;19.60;62.80;;;;;;5073148;28;20040;-66
2023/05/17 03:54:12;;;;;;;3.03;1.20;;;19.70;62.80;;;;;;5072734;28;20048;-66
2023/05/17 03:56:37;;;;;;;4.65;1.30;;;19.60;62.70;;;;;;5072581;28;20040;-66
2023/05/17 03:59:03;;;;;;;3.10;0.90;;;19.70;63.30;;;;;;5073521;28;20537;-66
2023/05/17 04:01:29;;;;;;;3.78;1.20;;;19.70;62.70;;;;;;5072545;28;20045;-65
2023/05/17 04:03:54;;;;;;;4.40;1.40;;;19.70;62.70;;;;;;5070311;28;20127;-66
2023/05/17 04:06:20;;;;;;;3.03;1.15;;;19.70;62.70;;;;;;5070359;28;20075;-66
2023/05/17 04:08:45;;;;;;;5.32;1.30;;;19.70;62.70;;;;;;5071345;28;20048;-65
2023/05/17 04:11:14;;;;;;;2.72;1.25;;;19.70;62.60;;;;;;5071771;28;20064;-66
2023/05/17 04:13:40;;;;;;;4.45;1.17;;;19.80;62.70;;;;;;5071391;28;20135;-66
2023/05/17 04:16:08;;;;;;;4.47;1.10;;;19.80;62.70;;;;;;5072700;28;20127;-66
2023/05/17 04:18:35;;;;;;;2.78;1.20;;;19.80;62.70;;;;;;5072082;28;20044;-66
2023/05/17 04:21:01;;;;;;;3.13;0.82;;;19.80;62.60;;;;;;5070870;28;20044;-66
2023/05/17 04:23:26;;;;;;;4.15;1.15;;;19.80;62.60;;;;;;5072774;28;20094;-66
2023/05/17 04:25:52;;;;;;;3.13;1.10;;;19.90;62.60;;;;;;5070603;28;20053;-66
2023/05/17 04:28:18;;;;;;;4.30;1.20;;;19.90;62.60;;;;;;5070454;28;20515;-66
2023/05/17 04:30:45;;;;;;;4.53;1.30;;;19.90;62.60;;;;;;5072712;28;20049;-66
2023/05/17 04:33:10;;;;;;;3.63;1.08;;;19.90;62.60;;;;;;5071429;28;20047;-66
2023/05/17 04:35:37;;;;;;;3.22;1.10;;;19.90;62.60;;;;;;5072642;28;20048;-66
2023/05/17 04:38:02;;;;;;;5.53;1.27;;;19.90;62.60;;;;;;5070888;28;20392;-66
2023/05/17 04:40:28;;;;;;;3.95;1.15;;;19.90;62.60;;;;;;5072175;28;20044;-67
2023/05/17 04:42:53;;;;;;;4.13;0.90;;;19.90;62.50;;;;;;5072257;28;20097;-66
2023/05/17 04:45:19;;;;;;;4.55;1.10;;;19.90;62.60;;;;;;5071436;28;20127;-66
2023/05/17 04:47:45;;;;;;;3.17;0.80;;;19.90;62.60;;;;;;5071147;28;20094;-66
2023/05/17 04:50:11;;;;;;;3.00;0.90;;;20.00;62.60;;;;;;5070608;28;20047;-66
2023/05/17 04:52:36;;;;;;;3.47;1.10;;;20.00;62.60;;;;;;5071518;28;20048;-65
2023/05/17 04:55:03;;;;;;;3.53;1.15;;;20.00;62.60;;;;;;5070973;28;20045;-66
2023/05/17 04:57:29;;;;;;;3.97;1.15;;;20.00;62.60;;;;;;5070725;28;20116;-66
2023/05/17 04:59:55;;;;;;;3.45;1.15;;;20.00;62.60;;;;;;5071348;28;20131;-66
2023/05/17 05:02:20;;;;;;;4.53;1.27;;;20.00;62.60;;;;;;5071449;28;20123;-66
2023/05/17 05:04:46;;;;;;;3.33;1.00;;;20.00;62.70;;;;;;5072494;28;20036;-66
2023/05/17 05:07:11;;;;;;;4.38;1.30;;;20.00;62.60;;;;;;5070861;28;20492;-66
2023/05/17 05:09:37;;;;;;;3.53;1.15;;;20.00;62.60;;;;;;5072601;28;20400;-66
2023/05/17 05:12:03;;;;;;;4.88;1.20;;;20.00;62.60;;;;;;5072281;28;20044;-66
2023/05/17 05:14:28;;;;;;;4.03;1.00;;;20.00;62.60;;;;;;5071137;28;20053;-66
2023/05/17 05:16:54;;;;;;;3.00;1.02;;;20.00;62.60;;;;;;5072105;28;20048;-66
2023/05/17 05:19:20;;;;;;;4.22;0.80;;;20.10;62.70;;;;;;5072075;28;20143;-66
2023/05/17 05:21:45;;;;;;;4.97;1.00;;;20.10;62.70;;;;;;5071142;28;20123;-66
2023/05/17 05:24:11;;;;;;;3.58;0.85;;;20.10;62.70;;;;;;5071795;28;20116;-65
2023/05/17 05:26:37;;;;;;;3.20;0.95;;;20.10;62.70;;;;;;5081346;28;20048;-66
2023/05/17 05:29:02;;;;;;;4.70;1.00;;;20.10;62.70;;;;;;5070958;28;20044;-65
2023/05/17 05:31:28;;;;;;;5.05;1.13;;;20.10;62.70;;;;;;5077736;28;20039;-65
2023/05/17 05:33:55;;;;;;;3.70;0.82;;;20.10;62.80;;;;;;5074425;28;20036;-66
2023/05/17 05:36:20;;;;;;;3.22;1.00;;;20.10;62.70;;;;;;5065015;28;20033;-66
2023/05/17 05:38:46;;;;;;;4.32;1.20;;;20.10;62.80;;;;;;5075432;28;20502;-66
2023/05/17 05:41:12;;;;;;;3.63;1.25;;;20.20;62.80;;;;;;5075075;28;20076;-66
2023/05/17 05:43:38;;;;;;;4.60;0.90;;;20.20;62.70;;;;;;5075809;28;20525;-66
2023/05/17 05:46:03;;;;;;;7.47;1.20;;;20.20;62.60;;;;;;5081151;28;20083;-65
2023/05/17 05:48:29;;;;;;;3.30;0.90;;;20.20;62.60;;;;;;5085804;28;20033;-65
2023/05/17 05:50:54;;;;;;;4.15;0.90;;;20.20;62.60;;;;;;5094375;28;20131;-65
2023/05/17 05:53:20;;;;;;;4.82;0.82;;;20.30;62.70;;;;;;5079057;28;20056;-66
2023/05/17 05:55:45;;;;;;;4.22;1.10;;;20.30;62.70;;;;;;5073529;28;20597;-66
2023/05/17 05:58:14;;;;;;;3.13;0.85;;;20.30;62.70;;;;;;5074890;28;20050;-65
2023/05/17 06:00:40;;;;;;;4.30;0.80;;;20.30;62.70;;;;;;5075735;28;20127;-65
2023/05/17 06:03:06;;;;;;;6.40;1.20;;;20.30;62.80;;;;;;5074404;28;20094;-65
2023/05/17 06:05:31;;;;;;;4.65;1.35;;;20.30;62.70;;;;;;5075289;28;20052;-67
2023/05/17 06:07:57;;;;;;;5.60;1.25;;;20.30;62.80;;;;;;5086185;28;20147;-64
2023/05/17 06:10:23;;;;;;;4.45;1.10;;;20.40;62.90;;;;;;5094606;28;20036;-65
2023/05/17 06:12:48;;;;;;;5.38;0.90;;;20.40;63.00;;;;;;5083606;28;20496;-65
2023/05/17 06:15:14;;;;;;;2.95;0.80;;;20.40;63.10;;;;;;5075057;28;20086;-65
2023/05/17 06:17:39;;;;;;;3.10;1.00;;;20.40;63.10;;;;;;5072509;28;20044;-65
2023/05/17 06:20:06;;;;;;;5.68;1.38;;;20.40;63.10;;;;;;5074783;28;20442;-65
2023/05/17 06:22:31;;;;;;;3.35;0.90;;;20.40;63.10;;;;;;5074899;28;20068;-65
2023/05/17 06:24:57;;;;;;;4.85;1.00;;;20.50;63.30;;;;;;5074512;28;20114;-65
2023/05/17 06:27:22;;;;;;;4.03;0.93;;;20.50;63.40;;;;;;5073494;28;20076;-65
2023/05/17 06:29:48;;;;;;;5.40;0.98;;;20.50;63.40;;;;;;5072931;28;20040;-65
2023/05/17 06:32:13;;;;;;;4.90;0.90;;;20.50;63.40;;;;;;5072501;28;20045;-65
2023/05/17 06:34:39;;;;;;;3.58;1.15;;;20.50;63.40;;;;;;5072188;28;20048;-69
2023/05/17 06:37:05;;;;;;;5.20;1.00;;;20.50;63.40;;;;;;5072370;28;20037;-69
2023/05/17 06:39:30;;;;;;;3.88;0.98;;;20.50;63.30;;;;;;5071613;28;20448;-69
2023/05/17 06:41:56;;;;;;;2.75;0.70;;;20.50;63.30;;;;;;5072324;28;20041;-65
2023/05/17 06:44:21;;;;;;;3.95;0.85;;;20.50;63.20;;;;;;5071861;28;20131;-64
2023/05/17 06:46:47;;;;;;;5.47;1.20;;;20.50;63.10;;;;;;5071570;28;20044;-64
2023/05/17 06:49:12;;;;;;;3.47;1.00;;;20.60;63.20;;;;;;5089086;28;20043;-64
2023/05/17 06:51:38;;;;;;;5.13;1.02;;;20.60;63.20;;;;;;5091142;28;20404;-64
2023/05/17 06:54:03;;;;;;;4.88;0.98;;;20.60;63.20;;;;;;5072010;28;20470;-70
2023/05/17 06:56:30;;;;;;;3.72;0.80;;;20.60;63.10;;;;;;5071606;28;20396;-68
2023/05/17 06:58:55;;;;;;;5.10;0.80;;;20.60;63.20;;;;;;5071079;28;20045;-65
2023/05/17 07:01:21;;;;;;;4.95;0.80;;;20.60;63.10;;;;;;5072753;28;20063;-64
2023/05/17 07:03:47;;;;;;;3.22;0.90;;;20.60;63.00;;;;;;5072838;28;20496;-64
2023/05/17 07:06:12;;;;;;;4.85;0.90;;;20.60;63.00;;;;;;5071386;28;20392;-64
2023/05/17 07:08:39;;;;;;;4.70;0.88;;;20.60;63.10;;;;;;5072863;28;20049;-64
2023/05/17 07:11:04;;;;;;;2.17;0.80;;;20.60;63.10;;;;;;5074264;28;20048;-65
2023/05/17 07:13:30;;;;;;;2.55;0.77;;;20.60;63.10;;;;;;5070225;28;20048;-67
2023/05/17 07:15:56;;;;;;;3.88;0.80;;;20.60;63.20;;;;;;5061283;28;20047;-66
2023/05/17 07:18:21;;;;;;;3.90;0.98;;;20.60;63.10;;;;;;5072094;28;20484;-66
2023/05/17 07:20:47;;;;;;;3.38;0.82;;;20.60;63.10;;;;;;5072024;28;20109;-66
2023/05/17 07:23:12;;;;;;;3.92;0.85;;;20.50;63.10;;;;;;5073201;28;20039;-66
2023/05/17 07:25:39;;;;;;;7.03;1.40;;;20.60;63.20;;;;;;5035844;28;1066637;-66
2023/05/17 07:28:04;;;;;;;4.85;0.80;;;20.50;63.20;;;;;;5071713;28;20064;-66
2023/05/17 07:30:30;;;;;;;5.90;0.98;;;20.60;63.90;;;;;;5074152;28;20040;-66
2023/05/17 07:32:56;;;;;;;3.35;0.80;;;20.60;63.40;;;;;;5074243;28;20051;-66
2023/05/17 07:35:21;;;;;;;3.30;0.80;;;20.60;63.40;;;;;;5072113;28;20401;-64
2023/05/17 07:37:47;;;;;;;2.58;0.88;;;20.60;63.30;;;;;;5074181;28;20127;-66
2023/05/17 07:40:12;;;;;;;3.80;0.90;;;20.60;63.30;;;;;;5072496;28;20488;-66
2023/05/17 07:42:38;;;;;;;3.78;1.05;;;20.60;63.20;;;;;;5072183;28;20416;-67
2023/05/17 07:45:04;;;;;;;4.63;0.82;;;20.60;63.10;;;;;;5072758;28;20542;-66
2023/05/17 07:47:30;;;;;;;5.63;0.93;;;20.60;63.00;;;;;;5072306;28;20041;-66
2023/05/17 07:49:55;;;;;;;4.22;0.80;;;20.60;62.90;;;;;;5072010;28;20044;-66
2023/05/17 07:52:21;;;;;;;3.67;0.90;;;20.60;62.70;;;;;;5072218;28;20105;-66
2023/05/17 07:54:46;;;;;;;5.07;1.27;;;20.50;62.60;;;;;;5072702;28;20043;-66
2023/05/17 07:57:12;;;;;;;4.63;1.23;;;20.50;62.60;;;;;;5071845;28;20499;-66
2023/05/17 07:59:37;;;;;;;7.78;1.05;;;20.50;62.60;;;;;;5073827;28;20053;-66
2023/05/17 08:02:03;;;;;;;5.80;1.20;;;20.50;62.50;;;;;;5073072;28;20090;-66
2023/05/17 08:04:29;;;;;;;5.47;1.63;;;20.50;62.50;;;;;;5072029;28;20040;-66
2023/05/17 08:06:54;;;;;;;6.18;1.27;;;20.50;62.50;;;;;;5073524;28;20036;-66
2023/05/17 08:09:20;;;;;;;3.55;1.00;;;20.50;63.10;;;;;;5072606;28;20048;-66
2023/05/17 08:11:46;;;;;;;5.55;1.10;;;20.50;62.50;;;;;;5073457;28;20063;-66
2023/05/17 08:14:14;;;;;;;5.75;1.20;;;20.50;62.50;;;;;;5073342;28;20087;-66
2023/05/17 08:16:44;;;;;;;3.75;1.08;;;20.50;62.40;;;;;;5072805;28;20040;-66
2023/05/17 08:19:11;;;;;;;2.70;0.85;;;20.50;62.40;;;;;;5073048;28;20052;-66
2023/05/17 08:21:38;;;;;;;4.23;0.83;;;20.50;62.40;;;;;;5073222;28;20119;-66
2023/05/17 08:24:04;;;;;;;4.93;1.10;;;20.50;62.40;;;;;;5071456;28;20044;-66
2023/05/17 08:26:29;;;;;;;3.22;1.02;;;20.50;62.40;;;;;;5071994;28;20515;-66
2023/05/17 08:28:55;;;;;;;4.22;1.00;;;20.50;62.40;;;;;;5072325;28;20059;-66
2023/05/17 08:31:20;;;;;;;3.85;1.00;;;20.40;62.30;;;;;;5070802;28;20051;-66
2023/05/17 08:33:46;;;;;;;4.55;1.08;;;20.50;63.00;;;;;;5072005;28;20098;-66
2023/05/17 08:36:12;;;;;;;2.70;0.82;;;20.40;62.20;;;;;;5072607;28;20076;-65
2023/05/17 08:38:37;;;;;;;4.85;1.17;;;20.40;62.20;;;;;;5072140;28;20066;-66
2023/05/17 08:41:03;;;;;;;5.78;1.15;;;20.40;62.20;;;;;;5071667;28;20126;-66
2023/05/17 08:43:30;;;;;;;5.25;1.02;;;20.40;62.20;;;;;;5072890;28;20501;-66
2023/05/17 08:45:56;;;;;;;3.47;1.13;;;20.40;62.20;;;;;;5072011;28;20041;-66
2023/05/17 08:48:23;;;;;;;4.65;1.02;;;20.40;62.20;;;;;;5071720;28;20045;-66
2023/05/17 08:50:53;;;;;;;4.20;0.80;;;20.40;62.10;;;;;;5073072;28;20044;-66
2023/05/17 08:53:18;;;;;;;5.07;1.50;;;20.40;62.10;;;;;;5070545;28;20086;-66
2023/05/17 08:55:47;;;;;;;3.25;1.13;;;20.40;62.00;;;;;;5071299;28;20040;-66
2023/05/17 08:58:12;;;;;;;5.38;1.13;;;20.40;62.00;;;;;;5071911;28;20076;-66
2023/05/17 09:00:38;;;;;;;4.07;1.23;;;20.40;62.00;;;;;;5055047;28;20072;-66
2023/05/17 09:03:04;;;;;;;5.53;1.00;;;20.40;62.60;;;;;;5071632;28;20047;-66
2023/05/17 09:05:30;;;;;;;4.65;1.00;;;20.40;62.00;;;;;;5070199;28;20051;-66
2023/05/17 09:07:56;;;;;;;3.15;0.90;;;20.40;62.00;;;;;;5072561;28;20040;-66
2023/05/17 09:10:21;;;;;;;5.45;1.30;;;20.40;61.90;;;;;;5071428;28;20139;-66
2023/05/17 09:12:47;;;;;;;3.10;0.90;;;20.40;61.90;;;;;;5087426;28;20037;-66
2023/05/17 09:15:16;;;;;;;4.13;1.02;;;20.40;61.80;;;;;;5054255;28;20048;-66
2023/05/17 09:17:42;;;;;;;4.40;1.00;;;20.40;61.90;;;;;;5071207;28;20040;-66
2023/05/17 09:20:08;;;;;;;4.95;1.65;;;20.40;61.80;;;;;;5070610;28;20189;-66
2023/05/17 09:22:34;;;;;;;5.70;1.17;;;20.40;61.80;;;;;;5071123;28;20479;-66
2023/05/17 09:25:03;;;;;;;3.40;0.82;;;20.40;61.80;;;;;;5072724;28;20041;-66
2023/05/17 09:27:29;;;;;;;;;;;20.40;61.70;;;;;;5070370;28;20556;-66
2023/05/17 09:29:55;;;;;;;4.22;0.98;;;20.40;61.70;;;;;;5071532;28;19924;-66
2023/05/17 09:32:20;;;;;;;4.05;0.90;;;20.40;61.80;;;;;;5072192;28;20392;-66
2023/05/17 09:34:47;;;;;;;4.45;1.20;;;20.40;61.80;;;;;;5070389;28;20080;-66
2023/05/17 09:37:14;;;;;;;4.28;1.10;;;20.40;61.70;;;;;;5071072;28;20056;-65
2023/05/17 09:39:40;;;;;;;3.35;1.13;;;20.40;61.60;;;;;;5072422;28;20119;-66
2023/05/17 09:42:05;;;;;;;2.78;0.82;;;20.40;61.60;;;;;;5053719;28;20125;-66
2023/05/17 09:44:31;;;;;;;3.15;1.02;;;20.40;61.60;;;;;;5054373;28;20053;-66
2023/05/17 09:46:56;;;;;;;3.22;1.02;;;20.40;61.70;;;;;;5072535;28;20040;-66
2023/05/17 09:49:25;;;;;;;4.65;1.13;;;20.40;61.60;;;;;;5070078;28;20086;-66
2023/05/17 09:51:51;;;;;;;3.42;0.80;;;20.40;61.60;;;;;;5072256;28;20051;-66
2023/05/17 09:54:17;;;;;;;3.67;1.13;;;20.40;61.60;;;;;;5072068;28;20040;-66
2023/05/17 09:56:42;;;;;;;4.32;0.90;;;20.40;61.60;;;;;;5070568;28;20485;-66
2023/05/17 09:59:12;;;;;;;3.45;1.00;;;20.40;61.60;;;;;;5070645;28;20047;-66
2023/05/17 10:01:40;;;;;;;4.82;0.93;;;20.40;61.60;;;;;;5070405;28;20044;-66
2023/05/17 10:04:05;;;;;;;3.53;0.90;;;20.40;61.50;;;;;;5070658;28;20044;-66
2023/05/17 10:06:32;;;;;;;5.03;1.00;;;20.40;61.50;;;;;;5072256;28;20040;-66
2023/05/17 10:08:58;;;;;;;3.08;0.80;;;20.40;61.50;;;;;;5070136;28;20041;-66
2023/05/17 10:11:32;;;;;;;3.15;1.10;;;20.40;61.50;;;;;;5070811;28;20051;-66
2023/05/17 10:14:10;;;;;;;4.10;0.73;;;20.40;61.40;;;;;;5071094;28;20049;-66
2023/05/17 10:16:37;;;;;;;2.42;0.95;;;20.40;61.30;;;;;;5069498;28;20499;-66
2023/05/17 10:19:02;;;;;;;4.20;1.40;;;20.40;61.30;;;;;;5074662;28;20098;-65
2023/05/17 10:21:31;;;;;;;3.40;1.00;;;20.40;61.30;;;;;;5075089;28;20124;-65
2023/05/17 10:24:01;;;;;;;3.58;0.85;;;20.50;61.30;;;;;;5074905;28;20037;-65
2023/05/17 10:26:27;;;;;;;4.75;1.30;;;20.50;61.20;;;;;;5075009;28;20052;-66
2023/05/17 10:29:02;;;;;;;5.50;1.20;;;20.50;61.20;;;;;;5075432;28;20052;-65
2023/05/17 10:31:35;;;;;;;8.80;1.40;;;20.40;60.20;;;;;;5074787;28;20036;-66
2023/05/17 10:34:01;;;;;;;6.55;1.48;;;20.40;59.10;;;;;;5073429;28;20041;-65
2023/05/17 10:36:26;;;;;;;6.38;1.42;;;20.40;59.10;;;;;;5074441;28;20036;-71
2023/05/17 10:38:52;;;;;;;7.25;1.33;;;20.40;59.10;;;;;;5055471;28;20400;-65
2023/05/17 10:41:20;;;;;;;6.15;1.20;;;20.40;59.10;;;;;;5073613;28;20044;-67
2023/05/17 10:43:46;;;;;;;5.43;1.33;;;20.40;59.20;;;;;;5039540;28;20040;-65
2023/05/17 10:46:15;;;;;;;10.48;1.45;;;20.40;59.30;;;;;;5073944;28;20084;-65
2023/05/17 10:48:41;;;;;;;4.13;0.90;;;20.40;59.30;;;;;;5074443;28;20511;-65
2023/05/17 10:51:07;;;;;;;5.97;1.30;;;20.50;59.40;;;;;;5073522;28;20052;-65
2023/05/17 10:53:32;;;;;;;6.03;1.33;;;20.50;59.40;;;;;;5073248;28;20072;-67
2023/05/17 10:55:58;;;;;;;8.77;1.20;;;20.50;59.40;;;;;;5073545;28;20048;-67
2023/05/17 10:58:27;;;;;;;7.20;1.48;;;20.50;59.50;;;;;;5072649;28;20473;-66
2023/05/17 11:00:55;;;;;;;7.10;1.30;;;20.50;59.50;;;;;;5074005;28;20048;-67
2023/05/17 11:03:22;;;;;;;;;;;20.50;59.60;;;;;;5075139;28;20080;-67
2023/05/17 11:06:09;;;;;;;4.22;1.05;;;20.50;59.70;;;;;;5072334;28;19967;-66
2023/05/17 11:08:46;;;;;;;6.57;1.33;;;20.50;59.70;;;;;;5085114;28;20058;-66
2023/05/17 11:11:18;;;;;;;6.18;1.27;;;20.50;59.80;;;;;;5094310;28;20032;-66
2023/05/17 11:13:54;;;;;;;8.43;1.20;;;20.50;59.80;;;;;;5078737;28;20048;-66
2023/05/17 11:16:21;;;;;;;6.47;1.13;;;20.50;59.90;;;;;;5073356;28;20044;-66
2023/05/17 11:18:51;;;;;;;5.88;1.35;;;20.50;59.90;;;;;;5072754;28;20067;-65
2023/05/17 11:21:16;;;;;;;5.97;0.95;;;20.50;59.90;;;;;;5072051;28;20047;-65
2023/05/17 11:23:45;;;;;;;7.95;1.05;;;20.60;59.90;;;;;;5073606;28;20048;-65
2023/05/17 11:26:22;;;;;;;8.50;1.50;;;20.60;59.90;;;;;;5071282;28;20110;-65
2023/05/17 11:28:49;;;;;;;8.57;1.48;;;20.60;59.90;;;;;;5072017;28;20075;-66
2023/05/17 11:31:14;;;;;;;5.53;1.33;;;20.60;59.90;;;;;;5071554;28;20052;-65
2023/05/17 11:33:44;;;;;;;9.60;1.73;;;20.60;59.80;;;;;;5071628;28;20041;-65
2023/05/17 11:36:27;;;;;;;5.20;1.13;;;20.60;59.80;;;;;;5073841;28;20053;-65
2023/05/17 11:39:12;;;;;;;4.15;1.15;;;20.60;59.80;;;;;;5071698;28;20488;-65
2023/05/17 11:41:40;;;;;;;5.22;1.35;;;20.60;59.80;;;;;;5072186;28;20036;-66
2023/05/17 11:44:06;;;;;;;5.35;0.93;;;20.60;60.40;;;;;;5072655;28;20048;-66
2023/05/17 11:46:32;;;;;;;4.60;1.33;;;20.70;59.90;;;;;;5072696;28;20043;-66
2023/05/17 11:48:58;;;;;;;5.63;1.10;;;20.70;59.80;;;;;;5055442;28;20044;-66
2023/05/17 11:51:23;;;;;;;4.50;1.00;;;20.70;59.80;;;;;;5055409;28;20078;-65
2023/05/17 11:53:49;;;;;;;6.97;1.15;;;20.70;59.80;;;;;;5056001;28;20047;-64
2023/05/17 11:56:15;;;;;;;5.38;1.10;;;20.70;59.80;;;;;;5071865;28;20102;-65
2023/05/17 11:58:41;;;;;;;3.92;1.27;;;20.70;59.80;;;;;;5073743;28;20045;-65
2023/05/17 12:01:07;;;;;;;6.75;1.02;;;20.70;59.80;;;;;;5054801;28;20083;-65
2023/05/17 12:03:33;;;;;;;6.40;1.17;;;20.70;59.80;;;;;;5073844;28;20545;-65
2023/05/17 12:06:12;;;;;;;6.00;1.17;;;20.70;59.80;;;;;;5073797;28;20044;-65
2023/05/17 12:08:38;;;;;;;3.72;1.05;;;20.70;59.80;;;;;;5056783;28;20486;-65
2023/05/17 12:11:06;;;;;;;3.80;1.23;;;20.70;59.80;;;;;;5073448;28;20048;-65
2023/05/17 12:13:33;;;;;;;4.70;1.10;;;20.70;59.80;;;;;;5072361;28;20059;-65
2023/05/17 12:16:04;;;;;;;5.93;1.10;;;20.70;59.90;;;;;;5072819;28;20048;-65
2023/05/17 12:18:37;;;;;;;5.00;1.00;;;20.70;59.80;;;;;;5072120;28;20047;-65
2023/05/17 12:21:02;;;;;;;4.13;0.93;;;20.80;59.80;;;;;;5071733;28;20049;-65
2023/05/17 12:23:32;;;;;;;4.57;1.10;;;20.80;59.90;;;;;;5070905;28;20037;-66
2023/05/17 12:26:11;;;;;;;3.75;0.80;;;20.80;59.80;;;;;;5072953;28;20515;-66
2023/05/17 12:28:53;;;;;;;3.70;0.90;;;20.80;59.80;;;;;;5073214;28;20408;-65
2023/05/17 12:31:21;;;;;;;4.05;1.38;;;20.80;59.70;;;;;;5071324;28;20079;-64
2023/05/17 12:33:46;;;;;;;5.30;1.17;;;20.80;59.70;;;;;;5071798;28;20040;-65
2023/05/17 12:36:12;;;;;;;4.25;1.00;;;20.80;59.80;;;;;;5037338;28;20090;-66
2023/05/17 12:38:41;;;;;;;3.78;0.90;;;20.80;59.70;;;;;;5055489;28;20040;-66
2023/05/17 12:41:08;;;;;;;4.30;0.70;;;20.80;59.60;;;;;;5054819;28;20048;-66
2023/05/17 12:43:35;;;;;;;5.72;1.00;;;20.80;59.60;;;;;;5054665;28;20040;-66
2023/05/17 12:46:02;;;;;;;3.53;0.73;;;20.80;59.60;;;;;;5071324;28;20048;-66